Terminal Aerodrome Forecast
Issued by NWS Green Bay, WI

Home | Current Version | Previous Version | Graphics & Text | Print | Product List | Glossary On
Versions: 1 2 3 4 5 6 7 8 9 10 11 12 13 14 15 16 17 18 19 20 21 22 23
000
FTUS43 KGRB 231902 AAB
TAFGRB
TAF AMD
KGRB 231902Z 2319/2418 06010G16KT P6SM BKN020
     FM232000 06010KT P6SM BKN040
     FM240000 06006KT P6SM SCT150
     FM241200 10006KT P6SM BKN045=

USA.gov is the U.S. government's official web portal to all federal, state and local government web resources and services.